createdAt,value
2023-04-05T00:00:57.996Z,20.00
2023-04-05T00:03:24.696Z,20.00
2023-04-05T00:05:51.345Z,20.00
2023-04-05T00:08:17.833Z,20.00
2023-04-05T00:10:44.286Z,20.00
2023-04-05T00:15:54.851Z,19.90
2023-04-05T00:21:12.154Z,20.00
2023-04-05T00:23:38.875Z,20.00
2023-04-05T00:26:05.459Z,19.90
2023-04-05T00:28:31.985Z,20.00
2023-04-05T00:30:58.484Z,20.00
2023-04-05T00:33:24.977Z,20.00
2023-04-05T00:35:51.460Z,20.00
2023-04-05T00:38:17.980Z,20.00
2023-04-05T00:40:44.461Z,20.00
2023-04-05T00:46:01.030Z,20.00
2023-04-05T00:51:27.265Z,20.80
2023-04-05T00:53:53.756Z,19.60
2023-04-05T00:56:20.255Z,20.00
2023-04-05T00:58:46.780Z,20.00
2023-04-05T01:01:13.279Z,19.90
2023-04-05T01:03:39.789Z,20.00
2023-04-05T01:06:06.259Z,20.00
2023-04-05T01:08:32.720Z,20.00
2023-04-05T01:10:59.190Z,20.00
2023-04-05T01:15:52.105Z,20.00
2023-04-05T01:18:18.640Z,20.00
2023-04-05T01:20:45.156Z,20.30
2023-04-05T01:23:11.608Z,20.00
2023-04-05T01:25:38.046Z,20.00
2023-04-05T01:28:04.512Z,17.50
2023-04-05T01:33:30.557Z,20.10
2023-04-05T01:38:41.003Z,19.90
2023-04-05T01:41:07.447Z,19.90
2023-04-05T01:43:33.962Z,19.90
2023-04-05T01:46:00.495Z,19.90
2023-04-05T01:51:17.150Z,19.70
2023-04-05T01:56:34.101Z,19.90
2023-04-05T01:59:00.613Z,19.80
2023-04-05T02:01:27.361Z,19.90
2023-04-05T02:03:54.094Z,19.80
2023-04-05T02:09:04.782Z,19.80
2023-04-05T02:14:15.650Z,19.90
2023-04-05T02:16:42.244Z,19.90
2023-04-05T02:19:08.793Z,19.90
2023-04-05T02:21:35.293Z,20.00
2023-04-05T02:24:01.781Z,19.80
2023-04-05T02:26:28.332Z,20.00
2023-04-05T02:28:54.825Z,19.90
2023-04-05T02:31:21.363Z,19.90
2023-04-05T02:33:47.858Z,19.90
2023-04-05T02:39:05.186Z,20.00
2023-04-05T02:41:31.673Z,20.00
2023-04-05T02:43:58.168Z,19.90
2023-04-05T02:46:24.674Z,20.00
2023-04-05T02:51:48.617Z,20.00
2023-04-05T02:54:15.068Z,20.00
2023-04-05T02:56:41.502Z,20.00
2023-04-05T02:59:08.027Z,20.00
2023-04-05T03:01:34.624Z,19.80
2023-04-05T03:04:01.240Z,20.00
2023-04-05T03:06:27.790Z,20.00
2023-04-05T03:08:54.289Z,20.00
2023-04-05T03:14:04.671Z,19.90
2023-04-05T03:16:31.200Z,20.00
2023-04-05T03:18:57.733Z,20.00
2023-04-05T03:21:24.298Z,20.00
2023-04-05T03:26:34.850Z,20.00
2023-04-05T03:29:01.337Z,20.00
2023-04-05T03:31:27.932Z,19.90
2023-04-05T03:33:54.398Z,19.90
2023-04-05T03:36:20.876Z,20.00
2023-04-05T03:38:47.374Z,20.00
2023-04-05T03:41:13.890Z,19.90
2023-04-05T03:43:40.374Z,20.00
2023-04-05T03:46:06.917Z,20.00
2023-04-05T03:48:33.468Z,20.20
2023-04-05T03:50:59.981Z,20.00
2023-04-05T03:53:26.492Z,20.00
2023-04-05T03:55:52.978Z,19.90
2023-04-05T03:58:19.445Z,19.90
2023-04-05T04:00:45.932Z,20.20
2023-04-05T04:03:12.400Z,20.20
2023-04-05T04:08:35.734Z,19.90
2023-04-05T04:11:02.178Z,20.00
2023-04-05T04:13:28.619Z,19.90
2023-04-05T04:15:55.181Z,20.00
2023-04-05T04:18:21.725Z,19.80
2023-04-05T04:20:48.203Z,20.00
2023-04-05T04:23:14.648Z,20.00
2023-04-05T04:25:41.378Z,20.00
2023-04-05T04:28:08.105Z,20.00
2023-04-05T04:30:34.612Z,20.00
2023-04-05T04:33:01.146Z,20.00
2023-04-05T04:35:27.871Z,20.00
2023-04-05T04:37:54.477Z,20.50
2023-04-05T04:43:05.010Z,19.90
2023-04-05T04:51:25.410Z,19.90
2023-04-05T04:53:51.905Z,20.00
2023-04-05T04:56:18.369Z,20.00
2023-04-05T04:58:44.850Z,20.00
2023-04-05T05:01:11.380Z,20.00
2023-04-05T05:03:37.907Z,20.00
2023-04-05T05:06:04.396Z,19.90
2023-04-05T05:08:30.896Z,19.80
2023-04-05T05:10:57.416Z,19.90
2023-04-05T05:13:23.965Z,19.90
2023-04-05T05:15:50.466Z,19.90
2023-04-05T05:18:16.949Z,19.80
2023-04-05T05:20:43.632Z,19.80
2023-04-05T05:25:54.361Z,19.60
2023-04-05T05:28:20.818Z,19.60
2023-04-05T05:30:47.369Z,19.70
2023-04-05T05:36:07.477Z,19.70
2023-04-05T05:38:33.915Z,19.80
2023-04-05T05:41:00.434Z,19.80
2023-04-05T05:43:26.917Z,20.30
2023-04-05T05:45:53.450Z,19.90
2023-04-05T05:48:20.044Z,19.90
2023-04-05T05:50:46.596Z,19.90
2023-04-05T05:53:13.082Z,19.90
2023-04-05T05:55:39.536Z,19.90
2023-04-05T06:00:56.316Z,20.00
2023-04-05T06:03:22.941Z,20.00
2023-04-05T06:05:49.477Z,20.00
2023-04-05T06:08:15.964Z,20.00
2023-04-05T06:10:42.614Z,20.00
2023-04-05T06:13:09.240Z,20.00
2023-04-05T06:15:35.751Z,20.10
2023-04-05T06:18:02.316Z,20.10
2023-04-05T06:20:28.859Z,20.10
2023-04-05T06:22:55.340Z,20.10
2023-04-05T06:25:21.833Z,20.10
2023-04-05T06:27:48.325Z,20.10
2023-04-05T06:30:14.802Z,20.10
2023-04-05T06:32:41.334Z,20.10
2023-04-05T06:35:07.782Z,20.20
2023-04-05T06:37:34.268Z,20.20
2023-04-05T06:42:44.734Z,20.20
2023-04-05T06:45:11.231Z,20.20
2023-04-05T06:47:37.820Z,20.30
2023-04-05T06:52:48.593Z,20.20
2023-04-05T06:55:15.090Z,20.20
2023-04-05T06:57:41.653Z,20.30
2023-04-05T07:00:08.172Z,20.30
2023-04-05T07:05:18.853Z,20.30
2023-04-05T07:07:45.392Z,20.10
2023-04-05T07:10:11.919Z,20.30
2023-04-05T07:12:38.463Z,20.30
2023-04-05T07:15:04.939Z,20.30
2023-04-05T07:17:31.436Z,20.30
2023-04-05T07:22:54.671Z,20.40
2023-04-05T07:25:21.188Z,20.40
2023-04-05T07:27:47.672Z,20.00
2023-04-05T07:30:14.375Z,20.40
2023-04-05T07:35:24.937Z,20.50
2023-04-05T07:40:54.084Z,20.40
2023-04-05T07:46:04.878Z,20.50
2023-04-05T07:48:31.434Z,20.50
2023-04-05T07:50:57.911Z,20.50
2023-04-05T07:53:24.376Z,20.50
2023-04-05T07:55:50.868Z,20.50
2023-04-05T07:58:17.322Z,20.50
2023-04-05T08:00:43.937Z,20.50
2023-04-05T08:03:10.525Z,20.60
2023-04-05T08:05:37.036Z,20.20
2023-04-05T08:08:03.477Z,20.60
2023-04-05T08:10:29.960Z,20.50
2023-04-05T08:12:56.420Z,20.50
2023-04-05T08:15:22.906Z,20.50
2023-04-05T08:17:49.431Z,20.30
2023-04-05T08:20:15.884Z,20.50
2023-04-05T08:22:42.332Z,20.50
2023-04-05T08:25:08.832Z,20.60
2023-04-05T08:27:35.336Z,20.60
2023-04-05T08:30:01.849Z,20.60
2023-04-05T08:32:28.310Z,20.60
2023-04-05T08:34:55.026Z,20.30
2023-04-05T08:37:21.452Z,20.60
2023-04-05T08:39:47.904Z,20.70
2023-04-05T08:42:14.337Z,20.60
2023-04-05T08:44:40.844Z,20.70
2023-04-05T08:47:07.344Z,20.60
2023-04-05T08:49:33.832Z,20.70
2023-04-05T08:52:00.306Z,20.70
2023-04-05T08:54:26.789Z,20.70
2023-04-05T08:56:53.269Z,21.40
2023-04-05T08:59:19.875Z,20.70
2023-04-05T09:01:46.401Z,20.70
2023-04-05T09:04:12.964Z,20.80
2023-04-05T09:06:39.459Z,20.80
2023-04-05T09:09:05.939Z,20.80
2023-04-05T09:11:32.424Z,20.80
2023-04-05T09:13:58.948Z,20.80
2023-04-05T09:16:25.444Z,20.80
2023-04-05T09:18:51.967Z,20.90
2023-04-05T09:21:18.436Z,20.80
2023-04-05T09:23:44.918Z,20.80
2023-04-05T09:26:11.423Z,20.80
2023-04-05T09:28:37.902Z,20.90
2023-04-05T09:31:04.369Z,20.90
2023-04-05T09:33:30.912Z,20.90
2023-04-05T09:35:57.471Z,20.80
2023-04-05T09:38:23.953Z,20.90
2023-04-05T09:40:50.441Z,20.60
2023-04-05T09:43:16.931Z,20.80
2023-04-05T09:45:43.508Z,20.80
2023-04-05T09:48:10.044Z,20.80
2023-04-05T09:50:36.578Z,20.80
2023-04-05T09:53:03.039Z,20.80
2023-04-05T09:55:29.503Z,20.80
2023-04-05T09:57:55.992Z,20.70
2023-04-05T10:00:22.532Z,20.60
2023-04-05T10:02:49.049Z,20.80
2023-04-05T10:05:15.684Z,20.80
2023-04-05T10:07:42.269Z,20.50
2023-04-05T10:10:08.804Z,20.80
2023-04-05T10:12:35.384Z,20.80
2023-04-05T10:15:01.868Z,20.80
2023-04-05T10:17:28.469Z,19.90
2023-04-05T10:19:54.997Z,20.80
2023-04-05T10:22:21.444Z,20.70
2023-04-05T10:24:47.949Z,20.80
2023-04-05T10:27:14.408Z,20.80
2023-04-05T10:29:40.894Z,20.90
2023-04-05T10:32:07.507Z,20.90
2023-04-05T10:34:34.023Z,20.80
2023-04-05T10:37:00.512Z,20.80
2023-04-05T10:39:26.969Z,20.80
2023-04-05T10:41:53.438Z,20.70
2023-04-05T10:44:26.434Z,20.70
2023-04-05T10:46:53.362Z,20.70
2023-04-05T10:49:19.838Z,20.70
2023-04-05T10:51:46.374Z,20.70
2023-04-05T10:54:12.932Z,20.70
2023-04-05T10:56:39.464Z,20.70
2023-04-05T10:59:05.986Z,20.70
2023-04-05T11:03:59.653Z,20.70
2023-04-05T11:06:26.178Z,20.70
2023-04-05T11:08:52.678Z,20.60
2023-04-05T11:11:19.192Z,20.60
2023-04-05T11:13:48.275Z,20.20
2023-04-05T11:16:14.885Z,20.60
2023-04-05T11:18:41.397Z,20.60
2023-04-05T11:21:07.851Z,20.60
2023-04-05T11:23:34.306Z,20.60
2023-04-05T11:26:00.776Z,20.50
2023-04-05T11:28:27.225Z,20.60
2023-04-05T11:30:53.758Z,20.50
2023-04-05T11:33:20.236Z,20.50
2023-04-05T11:35:46.713Z,20.50
2023-04-05T11:38:13.185Z,19.80
2023-04-05T11:40:39.874Z,20.30
2023-04-05T11:43:06.549Z,20.40
2023-04-05T11:45:33.047Z,20.40
2023-04-05T11:47:59.646Z,20.20
2023-04-05T11:50:26.169Z,20.30
2023-04-05T11:52:52.645Z,20.30
2023-04-05T11:55:19.095Z,20.30
2023-04-05T11:57:45.528Z,21.50
2023-04-05T12:00:12.009Z,20.30
2023-04-05T12:02:38.642Z,20.30
2023-04-05T12:05:05.183Z,20.30
2023-04-05T12:07:31.683Z,20.20
2023-04-05T12:09:58.159Z,20.20
2023-04-05T12:12:24.650Z,20.20
2023-04-05T12:14:51.117Z,20.20
2023-04-05T12:17:17.608Z,20.10
2023-04-05T12:19:44.100Z,20.10
2023-04-05T12:22:10.541Z,20.10
2023-04-05T12:24:36.989Z,20.10
2023-04-05T12:27:03.479Z,20.10
2023-04-05T12:29:29.934Z,20.10
2023-04-05T12:31:56.452Z,20.10
2023-04-05T12:34:22.951Z,20.10
2023-04-05T12:48:12.013Z,19.70
2023-04-05T12:50:38.540Z,20.00
2023-04-05T12:53:07.927Z,19.90
2023-04-05T12:55:37.440Z,20.00
2023-04-05T13:01:00.725Z,20.10
2023-04-05T13:09:01.710Z,19.90
2023-04-05T13:14:18.702Z,19.90
2023-04-05T13:16:45.254Z,19.90
2023-04-05T13:19:11.758Z,19.80
2023-04-05T13:21:38.206Z,19.90
2023-04-05T13:24:04.688Z,19.80
2023-04-05T13:26:31.170Z,19.80
2023-04-05T13:31:48.902Z,19.80
2023-04-05T13:37:05.706Z,19.80
2023-04-05T13:39:32.210Z,19.80
2023-04-05T13:41:58.711Z,19.80
2023-04-05T13:44:25.225Z,19.80
2023-04-05T13:46:51.692Z,19.80
2023-04-05T13:49:18.121Z,19.80
2023-04-05T13:51:44.659Z,19.80
2023-04-05T13:56:55.134Z,19.70
2023-04-05T13:59:32.181Z,19.70
2023-04-05T14:01:58.726Z,19.70
2023-04-05T14:04:25.230Z,19.70
2023-04-05T14:06:51.724Z,19.70
2023-04-05T14:09:18.176Z,19.70
2023-04-05T14:11:44.626Z,19.70
2023-04-05T14:14:11.090Z,19.70
2023-04-05T14:19:21.476Z,19.70
2023-04-05T14:30:32.823Z,19.60
2023-04-05T14:32:59.419Z,19.70
2023-04-05T14:35:25.944Z,19.70
2023-04-05T14:37:52.458Z,19.50
2023-04-05T14:40:18.978Z,19.60
2023-04-05T14:42:49.740Z,19.60
2023-04-05T14:45:16.926Z,19.60
2023-04-05T14:47:43.461Z,19.60
2023-04-05T14:50:10.040Z,19.70
2023-04-05T14:52:36.518Z,19.60
2023-04-05T14:55:03.022Z,19.60
2023-04-05T14:57:29.554Z,19.60
2023-04-05T14:59:56.016Z,19.60
2023-04-05T15:02:22.547Z,19.60
2023-04-05T15:04:49.148Z,19.60
2023-04-05T15:07:15.635Z,19.60
2023-04-05T15:09:42.125Z,19.60
2023-04-05T15:12:08.616Z,19.60
2023-04-05T15:14:35.359Z,19.60
2023-04-05T15:17:02.147Z,19.60
2023-04-05T15:19:28.631Z,19.60
2023-04-05T15:21:55.115Z,19.60
2023-04-05T15:24:21.593Z,19.60
2023-04-05T15:26:48.154Z,19.60
2023-04-05T15:29:14.754Z,19.60
2023-04-05T15:31:41.325Z,19.50
2023-04-05T15:34:08.432Z,19.60
2023-04-05T15:36:35.074Z,19.50
2023-04-05T15:39:01.597Z,19.60
2023-04-05T15:41:28.096Z,19.60
2023-04-05T15:43:54.624Z,19.50
2023-04-05T15:46:21.187Z,19.60
2023-04-05T15:48:47.707Z,19.50
2023-04-05T15:51:14.224Z,19.50
2023-04-05T15:53:40.680Z,19.50
2023-04-05T15:56:07.174Z,19.50
2023-04-05T15:58:33.624Z,19.50
2023-04-05T16:01:00.144Z,19.50
2023-04-05T16:03:26.698Z,19.50
2023-04-05T16:05:53.187Z,19.50
2023-04-05T16:08:19.705Z,19.50
2023-04-05T16:10:46.221Z,19.80
2023-04-05T16:13:12.670Z,19.60
2023-04-05T16:15:39.159Z,19.20
2023-04-05T16:18:05.675Z,19.40
2023-04-05T16:20:32.232Z,19.50
2023-04-05T16:22:58.706Z,19.80
2023-04-05T16:25:25.167Z,19.50
2023-04-05T16:27:51.658Z,19.70
2023-04-05T16:30:18.167Z,19.50
2023-04-05T16:32:44.729Z,20.00
2023-04-05T16:35:11.268Z,19.50
2023-04-05T16:37:39.007Z,19.50
2023-04-05T16:40:05.509Z,19.50
2023-04-05T16:42:31.994Z,19.50
2023-04-05T16:44:58.444Z,19.60
2023-04-05T16:47:24.947Z,19.50
2023-04-05T16:49:51.417Z,19.50
2023-04-05T16:52:17.938Z,19.50
2023-04-05T16:54:44.395Z,19.50
2023-04-05T16:57:10.883Z,19.50
2023-04-05T16:59:37.515Z,19.50
2023-04-05T17:02:04.070Z,19.50
2023-04-05T17:04:30.564Z,19.50
2023-04-05T17:06:57.029Z,19.50
2023-04-05T17:09:23.508Z,19.60
2023-04-05T17:11:50.002Z,19.50
2023-04-05T17:14:16.511Z,19.50
2023-04-05T17:16:42.998Z,19.50
2023-04-05T17:19:09.448Z,20.00
2023-04-05T17:21:35.930Z,19.50
2023-04-05T17:24:02.409Z,19.50
2023-04-05T17:26:28.860Z,19.50
2023-04-05T17:28:55.311Z,19.50
2023-04-05T17:31:21.851Z,19.50
2023-04-05T17:33:48.588Z,19.50
2023-04-05T17:36:15.325Z,19.50
2023-04-05T17:38:41.819Z,19.30
2023-04-05T17:41:08.283Z,19.40
2023-04-05T17:43:34.737Z,20.20
2023-04-05T17:46:01.185Z,19.40
2023-04-05T17:48:27.646Z,19.50
2023-04-05T17:50:54.159Z,19.40
2023-04-05T17:53:20.680Z,19.70
2023-04-05T17:55:47.189Z,19.50
2023-04-05T17:58:13.680Z,19.40
2023-04-05T18:00:40.220Z,18.90
2023-04-05T18:03:08.445Z,19.50
2023-04-05T18:05:35.276Z,19.40
2023-04-05T18:08:01.785Z,19.50
2023-04-05T18:10:28.298Z,19.50
2023-04-05T18:12:54.777Z,19.40
2023-04-05T18:15:21.324Z,19.40
2023-04-05T18:17:47.885Z,19.40
2023-04-05T18:20:14.430Z,19.30
2023-04-05T18:22:40.990Z,19.40
2023-04-05T18:25:07.569Z,19.30
2023-04-05T18:27:34.042Z,19.40
2023-04-05T18:30:00.544Z,19.40
2023-04-05T18:32:27.081Z,19.40
2023-04-05T18:34:53.665Z,19.70
2023-04-05T18:37:20.153Z,19.40
2023-04-05T18:39:46.652Z,19.60
2023-04-05T18:42:13.127Z,19.70
2023-04-05T18:44:39.613Z,19.40
2023-04-05T18:47:06.116Z,19.20
2023-04-05T18:49:32.581Z,19.40
2023-04-05T18:51:59.100Z,19.50
2023-04-05T18:54:25.565Z,19.50
2023-04-05T18:56:52.055Z,19.50
2023-04-05T18:59:18.594Z,19.50
2023-04-05T19:01:45.125Z,19.60
2023-04-05T19:04:11.651Z,19.60
2023-04-05T19:06:38.211Z,19.60
2023-04-05T19:09:04.802Z,19.40
2023-04-05T19:11:31.346Z,19.60
2023-04-05T19:13:57.851Z,19.60
2023-04-05T19:16:24.349Z,19.60
2023-04-05T19:18:50.860Z,19.30
2023-04-05T19:21:17.341Z,19.70
2023-04-05T19:23:43.868Z,19.70
2023-04-05T19:26:10.339Z,19.70
2023-04-05T19:28:36.821Z,20.00
2023-04-05T19:31:03.327Z,19.60
2023-04-05T19:33:29.843Z,19.70
2023-04-05T19:35:56.308Z,19.70
2023-04-05T19:38:22.831Z,19.50
2023-04-05T19:40:49.473Z,19.70
2023-04-05T19:43:15.970Z,19.70
2023-04-05T19:45:42.457Z,19.70
2023-04-05T19:48:08.949Z,19.80
2023-04-05T19:50:38.304Z,19.80
2023-04-05T19:53:04.771Z,19.80
2023-04-05T19:55:31.226Z,19.80
2023-04-05T19:57:57.672Z,19.80
2023-04-05T20:00:24.121Z,19.80
2023-04-05T20:02:50.595Z,19.80
2023-04-05T20:05:17.112Z,19.80
2023-04-05T20:07:43.621Z,19.80
2023-04-05T20:10:10.111Z,19.80
2023-04-05T20:12:36.618Z,19.80
2023-04-05T20:15:03.114Z,19.80
2023-04-05T20:17:29.649Z,19.70
2023-04-05T20:19:56.106Z,19.80
2023-04-05T20:22:22.595Z,19.90
2023-04-05T20:24:49.125Z,19.90
2023-04-05T20:27:15.582Z,19.80
2023-04-05T20:29:42.074Z,19.80
2023-04-05T20:32:08.585Z,19.80
2023-04-05T20:34:35.209Z,19.70
2023-04-05T20:37:01.792Z,19.70
2023-04-05T20:39:28.349Z,19.70
2023-04-05T20:41:54.798Z,19.70
2023-04-05T20:44:21.329Z,19.70
2023-04-05T20:46:47.822Z,19.70
2023-04-05T20:49:14.303Z,19.70
2023-04-05T20:51:42.640Z,19.70
2023-04-05T20:54:09.647Z,19.70
2023-04-05T20:56:36.139Z,19.60
2023-04-05T20:59:02.674Z,19.70
2023-04-05T21:01:29.212Z,19.70
2023-04-05T21:03:55.801Z,19.70
2023-04-05T21:06:22.301Z,19.70
2023-04-05T21:08:48.815Z,20.40
2023-04-05T21:11:15.343Z,19.80
2023-04-05T21:13:41.859Z,19.80
2023-04-05T21:16:08.489Z,19.80
2023-04-05T21:18:35.075Z,19.90
2023-04-05T21:21:01.562Z,19.80
2023-04-05T21:23:28.066Z,19.90
2023-04-05T21:25:54.532Z,19.80
2023-04-05T21:28:21.007Z,19.90
2023-04-05T21:30:47.520Z,19.80
2023-04-05T21:33:13.968Z,19.90
2023-04-05T21:35:40.508Z,19.90
2023-04-05T21:38:07.052Z,19.90
2023-04-05T21:40:33.536Z,20.00
2023-04-05T21:43:00.019Z,19.90
2023-04-05T21:45:26.523Z,19.90
2023-04-05T21:47:53.027Z,19.90
2023-04-05T21:50:19.562Z,19.90
2023-04-05T21:52:46.039Z,19.90
2023-04-05T21:55:12.568Z,19.60
2023-04-05T21:57:39.090Z,20.00
2023-04-05T22:00:05.600Z,20.00
2023-04-05T22:02:32.142Z,20.00
2023-04-05T22:04:58.647Z,20.00
2023-04-05T22:07:25.205Z,20.00
2023-04-05T22:12:19.032Z,19.90
2023-04-05T22:14:45.576Z,20.00
2023-04-05T22:17:12.033Z,19.90
2023-04-05T22:19:38.529Z,20.00
2023-04-05T22:22:05.000Z,19.70
2023-04-05T22:24:31.526Z,20.00
2023-04-05T22:26:57.998Z,20.00
2023-04-05T22:29:24.496Z,20.00
2023-04-05T22:31:51.031Z,20.00
2023-04-05T22:34:17.553Z,20.00
2023-04-05T22:36:44.011Z,19.90
2023-04-05T22:39:10.698Z,20.00
2023-04-05T22:41:37.352Z,19.90
2023-04-05T22:44:03.837Z,20.00
2023-04-05T22:46:30.394Z,20.00
2023-04-05T22:48:56.934Z,20.00
2023-04-05T22:51:23.454Z,20.00
2023-04-05T22:53:49.915Z,20.00
2023-04-05T22:56:16.374Z,19.90
2023-04-05T22:58:42.816Z,19.70
2023-04-05T23:01:09.291Z,19.90
2023-04-05T23:03:35.784Z,19.80
2023-04-05T23:06:02.264Z,19.80
2023-04-05T23:08:28.717Z,19.90
2023-04-05T23:10:55.216Z,19.80
2023-04-05T23:13:21.678Z,19.90
2023-04-05T23:15:48.280Z,19.90
2023-04-05T23:18:14.773Z,19.90
2023-04-05T23:20:41.269Z,19.90
2023-04-05T23:23:07.770Z,19.90
2023-04-05T23:25:34.267Z,19.80
2023-04-05T23:28:00.777Z,19.90
2023-04-05T23:30:27.253Z,19.90
2023-04-05T23:32:53.762Z,19.90
2023-04-05T23:35:20.284Z,19.90
2023-04-05T23:37:46.781Z,19.90
2023-04-05T23:40:13.314Z,19.90
2023-04-05T23:42:39.789Z,19.90
2023-04-05T23:45:07.357Z,19.90
2023-04-05T23:47:35.581Z,19.90
2023-04-05T23:50:02.141Z,19.90
2023-04-05T23:52:28.651Z,19.70
2023-04-05T23:54:55.130Z,19.80
2023-04-05T23:57:21.632Z,19.70
2023-04-05T23:59:48.074Z,19.70
